Time;durP1;ratioP1;P1;durP2;ratioP2;P2;SDS_P1;SDS_P2;PMS_P1;PMS_P2;Temp;Humidity;BMP_temperature;BMP_pressure;BME280_temperature;BME280_humidity;BME280_pressure;Samples;Min_cycle;Max_cycle;Signal;HPM_P1;HPM_P2
2022/08/08 00:00:12;;;;;;;4.22;1.30;;;19.50;83.70;;;;;;4937684;28;20060;-79
2022/08/08 00:02:57;;;;;;;4.03;1.50;;;19.50;83.80;;;;;;4939829;28;20039;-79
2022/08/08 00:05:44;;;;;;;4.07;1.55;;;19.40;84.00;;;;;;4941929;28;20043;-79
2022/08/08 00:08:32;;;;;;;3.20;1.65;;;19.40;84.10;;;;;;4941179;28;20054;-79
2022/08/08 00:10:57;;;;;;;4.13;1.60;;;19.40;84.30;;;;;;4928666;28;20047;-79
2022/08/08 00:13:51;;;;;;;4.70;1.70;;;19.20;84.30;;;;;;4955876;28;20050;-79
2022/08/08 00:16:49;;;;;;;2.63;1.48;;;19.30;84.50;;;;;;4937751;28;20043;-79
2022/08/08 00:19:24;;;;;;;2.63;1.48;;;19.30;84.70;;;;;;4939870;28;20048;-79
2022/08/08 00:22:00;;;;;;;3.28;1.63;;;19.30;84.80;;;;;;4940800;28;20074;-80
2022/08/08 00:24:39;;;;;;;2.80;1.50;;;19.30;84.80;;;;;;4926186;28;20918;-80
2022/08/08 00:27:09;;;;;;;4.78;1.45;;;19.30;85.00;;;;;;4941138;28;20078;-79
2022/08/08 00:29:47;;;;;;;2.65;2.22;;;19.20;85.00;;;;;;4926103;28;20874;-79
2022/08/08 00:32:44;;;;;;;6.05;1.40;;;19.20;85.10;;;;;;4943843;28;20043;-79
2022/08/08 00:35:22;;;;;;;4.03;1.55;;;19.10;85.20;;;;;;4946117;28;20092;-79
2022/08/08 00:38:06;;;;;;;3.22;1.25;;;19.10;85.40;;;;;;4940655;28;20040;-79
2022/08/08 00:40:41;;;;;;;3.78;1.50;;;19.10;85.50;;;;;;4939220;28;20060;-79
2022/08/08 00:43:18;;;;;;;3.53;1.42;;;19.10;85.60;;;;;;4938748;28;20618;-79
2022/08/08 00:45:51;;;;;;;2.90;1.20;;;19.00;85.60;;;;;;4942741;28;20040;-79
2022/08/08 00:48:37;;;;;;;4.28;1.48;;;19.00;85.80;;;;;;4939665;28;20094;-79
2022/08/08 00:51:12;;;;;;;1.55;1.15;;;19.00;85.80;;;;;;4926214;28;20109;-79
2022/08/08 00:54:05;;;;;;;2.40;1.25;;;18.90;86.00;;;;;;4942628;28;21260;-80
2022/08/08 00:57:02;;;;;;;3.70;1.40;;;18.90;86.10;;;;;;4928273;28;20043;-80
2022/08/08 00:59:53;;;;;;;2.10;1.50;;;18.90;86.20;;;;;;4939249;28;20105;-80
2022/08/08 01:02:37;;;;;;;2.97;1.13;;;18.90;86.50;;;;;;4944054;28;20172;-79
2022/08/08 01:05:41;;;;;;;3.15;1.40;;;18.80;86.60;;;;;;4946642;28;20911;-79
2022/08/08 01:08:31;;;;;;;1.90;1.70;;;18.80;86.90;;;;;;4946123;28;21201;-79
2022/08/08 01:11:18;;;;;;;2.65;1.50;;;18.70;87.00;;;;;;4944017;28;20271;-79
2022/08/08 01:13:53;;;;;;;3.72;1.60;;;18.70;87.30;;;;;;4944132;28;20114;-79
2022/08/08 01:16:59;;;;;;;3.90;1.80;;;18.70;87.40;;;;;;4946384;28;20044;-78
2022/08/08 01:19:28;;;;;;;3.42;1.80;;;18.70;87.50;;;;;;4939764;28;20467;-79
2022/08/08 01:25:16;;;;;;;3.60;1.65;;;18.70;87.90;;;;;;4945946;28;20063;-78
2022/08/08 01:28:36;;;;;;;2.92;1.45;;;18.70;88.10;;;;;;4945682;28;20043;-79
2022/08/08 01:31:45;;;;;;;3.13;1.75;;;18.70;88.20;;;;;;4932332;28;20051;-79
2022/08/08 01:34:49;;;;;;;2.50;1.48;;;18.60;88.30;;;;;;4963275;28;20465;-79
2022/08/08 01:37:45;;;;;;;3.35;1.92;;;18.60;88.60;;;;;;4947734;28;20078;-79
2022/08/08 01:40:27;;;;;;;2.90;1.90;;;18.50;88.60;;;;;;4948191;28;20109;-79
2022/08/08 01:43:43;;;;;;;6.25;2.53;;;18.40;88.70;;;;;;4933680;28;20053;-78
2022/08/08 01:46:47;;;;;;;2.88;1.63;;;18.50;88.90;;;;;;4937954;28;20059;-79
2022/08/08 01:49:52;;;;;;;3.60;2.15;;;18.50;88.90;;;;;;4933792;28;20075;-80
2022/08/08 01:52:49;;;;;;;4.30;2.55;;;18.70;89.30;;;;;;4946553;28;20126;-80
2022/08/08 01:56:01;;;;;;;2.95;1.70;;;18.50;89.30;;;;;;4944108;28;20039;-79
2022/08/08 01:59:02;;;;;;;4.63;2.05;;;18.40;89.30;;;;;;4943104;28;20633;-79
2022/08/08 02:05:46;;;;;;;;;;;;;;;;;;;;;
2022/08/08 02:08:50;;;;;;;3.22;1.60;;;18.40;89.70;;;;;;4947550;28;39806;-79
2022/08/08 02:12:08;;;;;;;4.40;1.40;;;18.40;89.80;;;;;;4944718;28;20064;-79
2022/08/08 02:15:14;;;;;;;3.95;1.92;;;18.30;90.00;;;;;;4967394;28;20565;-79
2022/08/08 02:18:46;;;;;;;4.30;2.28;;;18.20;90.00;;;;;;4942735;28;20083;-79
2022/08/08 02:24:49;;;;;;;5.65;2.10;;;18.20;90.10;;;;;;4941697;28;20420;-79
2022/08/08 02:27:51;;;;;;;2.65;1.77;;;18.10;90.20;;;;;;4946481;28;20052;-80
2022/08/08 02:31:10;;;;;;;7.65;2.25;;;18.10;90.20;;;;;;4940987;28;20605;-79
2022/08/08 02:33:56;;;;;;;3.03;1.70;;;18.20;90.30;;;;;;4941381;28;20081;-79
2022/08/08 02:37:14;;;;;;;4.13;1.60;;;18.40;90.30;;;;;;4940997;28;20086;-79
2022/08/08 02:40:29;;;;;;;5.25;1.90;;;17.70;90.30;;;;;;4909813;28;20142;-79
2022/08/08 02:43:38;;;;;;;5.30;2.20;;;18.10;90.40;;;;;;4925806;28;20060;-79
2022/08/08 02:49:05;;;;;;;2.78;1.90;;;18.10;90.50;;;;;;4903208;28;36907;-79
2022/08/08 02:52:04;;;;;;;3.75;1.77;;;18.00;90.50;;;;;;4943315;28;20087;-80
2022/08/08 02:54:48;;;;;;;3.20;1.98;;;18.00;90.60;;;;;;4937868;28;20545;-79
2022/08/08 02:57:32;;;;;;;4.38;2.28;;;17.90;90.70;;;;;;4926073;28;20071;-79
2022/08/08 03:00:14;;;;;;;2.95;2.00;;;17.90;90.70;;;;;;4936114;28;20048;-79
2022/08/08 03:03:17;;;;;;;3.88;2.10;;;17.90;90.70;;;;;;4905694;28;20053;-79
2022/08/08 03:05:58;;;;;;;3.13;1.73;;;17.90;90.80;;;;;;4906269;28;20574;-79
2022/08/08 03:08:38;;;;;;;5.20;2.08;;;17.90;90.90;;;;;;4905944;28;20044;-79
2022/08/08 03:11:34;;;;;;;3.53;1.90;;;17.80;90.90;;;;;;4906228;28;20040;-80
2022/08/08 03:14:24;;;;;;;5.22;3.33;;;17.80;90.90;;;;;;4918360;28;20048;-79
2022/08/08 03:17:39;;;;;;;6.05;2.20;;;17.80;91.00;;;;;;4905410;28;20056;-79
2022/08/08 03:23:29;;;;;;;6.45;2.55;;;17.80;91.10;;;;;;4904745;28;20056;-79
2022/08/08 03:26:24;;;;;;;;;;;;;;;;;;;;;
2022/08/08 03:29:21;;;;;;;4.57;2.42;;;17.50;91.10;;;;;;4904483;28;41834;-80
2022/08/08 03:35:41;;;;;;;4.63;1.67;;;17.70;91.40;;;;;;4907310;28;20052;-79
2022/08/08 03:38:36;;;;;;;3.50;1.92;;;17.60;91.40;;;;;;4890404;28;20132;-80
2022/08/08 03:44:56;;;;;;;5.97;2.17;;;17.60;91.50;;;;;;4942106;28;20117;-79
2022/08/08 03:47:31;;;;;;;3.03;1.73;;;18.30;91.70;;;;;;4927420;28;20067;-79
2022/08/08 03:53:35;;;;;;;3.15;1.80;;;17.50;91.60;;;;;;4918544;28;20071;-79
2022/08/08 03:56:17;;;;;;;3.50;1.90;;;17.50;91.60;;;;;;4943440;28;20039;-80
2022/08/08 03:59:05;;;;;;;3.08;1.92;;;17.50;91.70;;;;;;4940943;28;20082;-79
2022/08/08 04:01:51;;;;;;;4.07;2.42;;;17.50;91.70;;;;;;4943079;28;20055;-79
2022/08/08 04:04:39;;;;;;;7.55;2.33;;;17.50;91.70;;;;;;4927903;28;20051;-80
2022/08/08 04:07:34;;;;;;;5.00;2.42;;;17.50;92.00;;;;;;4955626;28;20047;-80
2022/08/08 04:10:11;;;;;;;5.00;2.35;;;17.40;91.80;;;;;;4945071;28;20121;-80
2022/08/08 04:13:11;;;;;;;5.20;2.30;;;17.40;91.90;;;;;;4943233;28;20133;-80
2022/08/08 04:16:07;;;;;;;4.50;2.22;;;17.40;91.90;;;;;;4927051;28;20105;-80
2022/08/08 04:18:57;;;;;;;6.63;2.10;;;17.40;91.90;;;;;;4942349;28;20547;-80
2022/08/08 04:21:51;;;;;;;2.92;1.90;;;17.30;92.00;;;;;;4942548;28;20043;-79
2022/08/08 04:24:26;;;;;;;4.60;2.50;;;17.30;92.10;;;;;;4955668;28;20186;-80
2022/08/08 04:27:11;;;;;;;3.83;2.13;;;17.00;92.00;;;;;;4942964;28;20044;-79
2022/08/08 04:29:51;;;;;;;5.20;2.50;;;17.20;92.10;;;;;;4925048;28;20043;-79
2022/08/08 04:32:33;;;;;;;3.17;2.22;;;17.20;92.20;;;;;;4925838;28;20062;-79
2022/08/08 04:39:02;;;;;;;2.78;1.98;;;17.10;92.30;;;;;;4955148;28;20056;-79
2022/08/08 04:41:42;;;;;;;8.52;2.05;;;17.10;92.40;;;;;;4941521;28;20567;-79
2022/08/08 04:44:18;;;;;;;4.72;2.30;;;17.00;92.40;;;;;;4942844;28;21017;-80
2022/08/08 04:47:04;;;;;;;8.25;2.38;;;17.10;92.40;;;;;;4922814;28;20180;-80
2022/08/08 04:49:48;;;;;;;;;;;;;;;;;;;;;
2022/08/08 04:52:43;;;;;;;5.65;3.40;;;16.60;92.40;;;;;;4937334;28;41296;-83
2022/08/08 04:55:23;;;;;;;3.78;2.28;;;17.00;92.60;;;;;;4957010;28;20056;-84
2022/08/08 04:58:04;;;;;;;5.65;2.78;;;17.00;92.90;;;;;;4926739;28;20104;-84
2022/08/08 05:00:30;;;;;;;3.08;2.03;;;17.00;92.70;;;;;;4928503;28;20589;-75
2022/08/08 05:02:56;;;;;;;4.72;2.78;;;17.00;92.70;;;;;;4926312;28;21198;-75
2022/08/08 05:05:26;;;;;;;3.55;2.15;;;16.90;92.80;;;;;;4942147;28;20067;-76
2022/08/08 05:07:57;;;;;;;4.05;2.97;;;16.90;92.80;;;;;;4944365;28;20053;-76
2022/08/08 05:10:48;;;;;;;4.43;2.25;;;16.90;92.90;;;;;;4944760;28;20549;-76
2022/08/08 05:13:17;;;;;;;4.13;2.53;;;16.70;92.90;;;;;;4945169;28;20059;-75
2022/08/08 05:15:49;;;;;;;3.35;2.53;;;16.90;92.90;;;;;;4943004;28;20043;-76
2022/08/08 05:18:15;;;;;;;5.55;2.40;;;16.90;93.20;;;;;;4928506;28;20047;-76
2022/08/08 05:20:45;;;;;;;5.20;3.08;;;16.70;93.00;;;;;;4927963;28;20043;-75
2022/08/08 05:23:32;;;;;;;3.65;2.38;;;16.90;93.10;;;;;;4931190;28;20040;-76
2022/08/08 05:26:01;;;;;;;3.78;2.85;;;16.90;93.20;;;;;;4946341;28;20058;-75
2022/08/08 05:28:29;;;;;;;7.55;2.38;;;16.80;93.10;;;;;;4936552;28;20109;-76
2022/08/08 05:30:58;;;;;;;5.45;3.17;;;16.90;93.20;;;;;;4931043;28;20127;-76
2022/08/08 05:33:24;;;;;;;4.57;2.65;;;16.80;93.20;;;;;;4932309;28;20063;-76
2022/08/08 05:35:56;;;;;;;4.00;2.60;;;16.60;93.30;;;;;;4932171;28;21301;-76
2022/08/08 05:38:49;;;;;;;6.43;3.33;;;16.80;93.40;;;;;;4931262;28;20054;-76
2022/08/08 05:41:37;;;;;;;6.90;2.53;;;16.80;93.40;;;;;;4941102;28;20255;-77
2022/08/08 05:44:15;;;;;;;6.60;2.30;;;16.90;93.50;;;;;;4931349;28;20052;-76
2022/08/08 05:46:45;;;;;;;4.88;2.95;;;16.80;93.50;;;;;;4931140;28;20070;-76
2022/08/08 05:49:15;;;;;;;6.63;2.70;;;16.80;93.60;;;;;;4947553;28;20044;-76
2022/08/08 05:51:45;;;;;;;4.90;3.00;;;16.80;93.60;;;;;;4930033;28;20529;-75
2022/08/08 05:54:31;;;;;;;6.68;2.53;;;16.80;93.70;;;;;;4932559;28;20085;-87
2022/08/08 05:57:01;;;;;;;4.55;2.53;;;16.80;93.80;;;;;;4944117;28;20063;-76
2022/08/08 05:59:35;;;;;;;5.93;2.65;;;17.00;93.90;;;;;;4932223;28;20074;-76
2022/08/08 06:02:02;;;;;;;5.13;2.38;;;16.70;93.80;;;;;;4931802;28;20046;-76
2022/08/08 06:04:30;;;;;;;7.47;3.45;;;16.90;93.90;;;;;;4931195;28;20040;-77
2022/08/08 06:06:59;;;;;;;4.65;3.35;;;16.90;93.90;;;;;;4931363;28;20048;-76
2022/08/08 06:09:38;;;;;;;6.35;3.08;;;16.90;93.90;;;;;;4943130;28;20206;-76
2022/08/08 06:12:07;;;;;;;5.38;2.97;;;17.00;94.00;;;;;;4931011;28;20086;-76
2022/08/08 06:14:35;;;;;;;5.55;3.03;;;17.00;94.00;;;;;;4944780;28;20043;-73
2022/08/08 06:17:03;;;;;;;7.45;2.72;;;17.10;94.10;;;;;;4942469;28;20040;-72
2022/08/08 06:19:29;;;;;;;5.80;2.75;;;16.40;93.90;;;;;;4943915;28;20047;-72
2022/08/08 06:21:55;;;;;;;9.68;3.10;;;17.00;94.10;;;;;;4944996;28;20052;-72
2022/08/08 06:24:21;;;;;;;8.68;3.45;;;17.00;94.10;;;;;;4924653;28;20119;-72
2022/08/08 06:27:08;;;;;;;4.78;3.10;;;17.00;94.10;;;;;;4945206;28;20525;-72
2022/08/08 06:29:43;;;;;;;7.60;2.58;;;17.00;94.20;;;;;;4943594;28;20044;-72
2022/08/08 06:32:17;;;;;;;5.60;3.20;;;17.00;94.30;;;;;;4931112;28;20063;-72
2022/08/08 06:34:46;;;;;;;8.77;3.20;;;17.00;94.30;;;;;;4931625;28;20592;-73
2022/08/08 06:37:13;;;;;;;5.65;3.03;;;17.00;94.30;;;;;;4947210;28;20109;-73
2022/08/08 06:39:49;;;;;;;6.85;3.85;;;17.00;94.40;;;;;;4960466;28;20102;-73
2022/08/08 06:42:17;;;;;;;8.90;3.53;;;17.20;94.40;;;;;;4944024;28;20052;-73
2022/08/08 06:44:48;;;;;;;15.55;4.68;;;17.10;94.50;;;;;;4943350;28;20036;-73
2022/08/08 06:47:14;;;;;;;9.20;3.22;;;17.10;94.50;;;;;;4929793;28;20630;-73
2022/08/08 06:49:40;;;;;;;7.30;3.88;;;17.10;94.50;;;;;;4930423;28;20150;-72
2022/08/08 06:52:07;;;;;;;4.55;3.03;;;17.10;94.50;;;;;;4943905;28;20141;-73
2022/08/08 06:54:36;;;;;;;5.85;3.30;;;17.20;94.50;;;;;;4944797;28;20886;-73
2022/08/08 06:57:05;;;;;;;7.38;2.72;;;17.20;94.50;;;;;;4944713;28;20040;-73
2022/08/08 06:59:33;;;;;;;5.28;2.97;;;17.20;94.50;;;;;;4944378;28;20094;-73
2022/08/08 07:02:04;;;;;;;7.80;3.30;;;17.20;94.60;;;;;;4947119;28;20890;-73
2022/08/08 07:04:40;;;;;;;4.77;3.07;;;17.20;94.90;;;;;;4945297;28;20858;-73
2022/08/08 07:07:10;;;;;;;5.07;2.92;;;17.30;94.60;;;;;;4948043;28;20525;-73
2022/08/08 07:09:41;;;;;;;5.43;2.65;;;17.30;94.60;;;;;;4945631;28;20568;-73
2022/08/08 07:12:17;;;;;;;11.23;5.22;;;17.30;94.60;;;;;;4929566;28;20043;-72
2022/08/08 07:15:02;;;;;;;6.53;3.10;;;17.40;94.70;;;;;;4945389;28;20050;-73
2022/08/08 07:17:44;;;;;;;5.78;3.10;;;17.40;94.70;;;;;;4932260;28;20069;-73
2022/08/08 07:20:32;;;;;;;5.78;3.95;;;17.50;94.70;;;;;;4943280;28;20538;-72
2022/08/08 07:23:21;;;;;;;4.20;2.50;;;17.50;94.70;;;;;;4953917;28;20055;-72
2022/08/08 07:25:53;;;;;;;9.57;3.33;;;17.60;94.70;;;;;;4944439;28;20044;-72
2022/08/08 07:28:21;;;;;;;4.20;2.40;;;17.50;94.70;;;;;;4928625;28;20039;-73
2022/08/08 07:30:47;;;;;;;5.55;2.85;;;17.70;94.70;;;;;;4929905;28;20063;-72
2022/08/08 07:33:15;;;;;;;6.15;3.20;;;17.70;94.70;;;;;;4930087;28;20204;-72
2022/08/08 07:35:43;;;;;;;5.63;2.78;;;17.70;94.70;;;;;;4943685;28;20050;-72
2022/08/08 07:38:10;;;;;;;7.57;2.92;;;17.80;94.70;;;;;;4931658;28;20607;-73
2022/08/08 07:40:36;;;;;;;3.47;2.42;;;17.80;94.70;;;;;;4930531;28;20589;-73
2022/08/08 07:43:03;;;;;;;5.47;3.20;;;17.90;94.70;;;;;;4930626;28;20534;-72
2022/08/08 07:45:29;;;;;;;3.50;2.38;;;17.90;94.60;;;;;;4944652;28;20113;-72
2022/08/08 07:47:58;;;;;;;7.13;3.35;;;17.90;94.60;;;;;;4931535;28;20036;-72
2022/08/08 07:50:25;;;;;;;6.07;2.60;;;18.00;94.50;;;;;;4929640;28;20120;-72
2022/08/08 07:52:58;;;;;;;3.92;2.58;;;18.10;94.50;;;;;;4930504;28;20043;-72
2022/08/08 07:55:27;;;;;;;3.78;2.80;;;18.10;94.40;;;;;;4943640;28;20521;-73
2022/08/08 07:58:10;;;;;;;3.22;2.13;;;18.20;94.30;;;;;;4945647;28;20126;-73
2022/08/08 08:00:44;;;;;;;5.55;2.60;;;18.20;94.20;;;;;;4930496;28;20062;-73
2022/08/08 08:03:15;;;;;;;4.55;2.40;;;18.30;94.30;;;;;;4945417;28;20474;-74
2022/08/08 08:05:43;;;;;;;4.30;2.25;;;18.30;94.20;;;;;;4929028;28;20055;-74
2022/08/08 08:08:34;;;;;;;6.28;2.60;;;18.30;94.10;;;;;;4931476;28;20458;-78
2022/08/08 08:11:11;;;;;;;4.35;2.10;;;18.40;94.10;;;;;;4945945;28;20114;-75
2022/08/08 08:13:58;;;;;;;3.45;1.92;;;18.40;94.10;;;;;;4928752;28;20105;-81
2022/08/08 08:16:52;;;;;;;7.57;2.55;;;18.50;94.00;;;;;;4940681;28;20078;-73
2022/08/08 08:19:27;;;;;;;3.85;2.25;;;18.40;93.90;;;;;;4945363;28;20090;-73
2022/08/08 08:21:54;;;;;;;4.00;2.35;;;18.60;93.80;;;;;;4943385;28;20048;-74
2022/08/08 08:24:23;;;;;;;3.85;2.08;;;18.80;93.80;;;;;;4942453;28;20044;-74
2022/08/08 08:26:58;;;;;;;2.72;1.65;;;18.70;93.80;;;;;;4944093;28;20044;-74
2022/08/08 08:29:29;;;;;;;2.75;1.75;;;18.80;93.60;;;;;;4945348;28;20535;-73
2022/08/08 08:32:00;;;;;;;2.78;1.70;;;18.80;93.50;;;;;;4928250;28;20106;-73
2022/08/08 08:34:34;;;;;;;2.85;1.95;;;18.90;93.40;;;;;;4942048;28;20044;-74
2022/08/08 08:37:01;;;;;;;4.07;1.83;;;18.90;93.30;;;;;;4943268;28;20040;-74
2022/08/08 08:39:38;;;;;;;6.55;3.03;;;18.60;93.30;;;;;;4959644;28;20121;-74
2022/08/08 08:42:12;;;;;;;5.90;2.13;;;19.00;93.20;;;;;;4942101;28;20066;-74
2022/08/08 08:44:41;;;;;;;3.85;1.90;;;19.10;93.10;;;;;;4944823;28;20094;-74
2022/08/08 08:47:08;;;;;;;4.38;2.10;;;19.10;93.00;;;;;;4943958;28;20081;-74
2022/08/08 08:49:45;;;;;;;5.97;2.17;;;19.00;92.80;;;;;;4927541;28;20035;-74
2022/08/08 08:52:40;;;;;;;4.68;1.73;;;18.90;92.70;;;;;;4945009;28;20048;-74
2022/08/08 08:55:11;;;;;;;4.22;2.05;;;19.20;92.70;;;;;;4945355;28;20059;-74
2022/08/08 08:57:37;;;;;;;2.77;1.83;;;19.30;92.60;;;;;;4944921;28;20039;-73
2022/08/08 09:00:04;;;;;;;5.72;1.80;;;19.30;92.60;;;;;;4930182;28;20050;-72
2022/08/08 09:02:33;;;;;;;4.75;2.20;;;19.30;92.60;;;;;;4957256;28;20489;-73
2022/08/08 09:05:02;;;;;;;4.65;1.67;;;19.40;92.40;;;;;;4942085;28;20044;-74
2022/08/08 09:07:34;;;;;;;6.32;2.15;;;19.50;92.20;;;;;;4958243;28;20488;-74
2022/08/08 09:10:02;;;;;;;5.30;1.70;;;19.50;92.10;;;;;;4929512;28;20604;-74
2022/08/08 09:12:37;;;;;;;5.57;1.90;;;19.50;92.00;;;;;;4940535;28;20052;-74
2022/08/08 09:15:06;;;;;;;3.45;1.80;;;19.50;92.00;;;;;;4940672;28;20075;-74
2022/08/08 09:17:35;;;;;;;4.00;2.00;;;19.60;92.00;;;;;;4939599;28;20063;-74
2022/08/08 09:20:07;;;;;;;3.58;1.88;;;19.70;91.80;;;;;;4943436;28;20537;-74
2022/08/08 09:22:35;;;;;;;4.93;1.95;;;19.70;91.70;;;;;;4959287;28;20129;-74
2022/08/08 09:25:04;;;;;;;3.55;1.83;;;19.50;91.60;;;;;;4931179;28;20117;-75
2022/08/08 09:27:30;;;;;;;4.40;2.30;;;19.80;91.70;;;;;;4933050;28;20082;-74
2022/08/08 09:30:32;;;;;;;8.30;2.28;;;19.80;91.60;;;;;;4944832;28;20043;-73
2022/08/08 09:32:59;;;;;;;;;;;19.90;91.40;;;;;;4946723;28;20055;-74
2022/08/08 09:35:27;;;;;;;6.18;2.30;;;19.90;91.30;;;;;;4945629;28;19930;-75
2022/08/08 09:38:04;;;;;;;5.50;1.92;;;20.00;91.20;;;;;;4932105;28;20054;-75
2022/08/08 09:40:34;;;;;;;4.38;1.80;;;19.90;91.20;;;;;;4941626;28;20218;-75
2022/08/08 09:43:33;;;;;;;7.40;1.98;;;20.00;91.10;;;;;;4931562;28;20055;-75
2022/08/08 09:46:02;;;;;;;2.50;1.45;;;20.10;90.90;;;;;;4944716;28;20054;-74
2022/08/08 09:48:30;;;;;;;3.33;1.80;;;20.20;90.70;;;;;;4943580;28;20117;-74
2022/08/08 09:51:01;;;;;;;3.85;3.08;;;20.20;90.80;;;;;;4946887;28;20106;-75
2022/08/08 09:53:58;;;;;;;4.57;2.03;;;20.20;90.60;;;;;;4933159;28;20519;-73
2022/08/08 09:56:24;;;;;;;3.97;2.47;;;20.60;90.60;;;;;;4945831;28;20048;-72
2022/08/08 09:59:02;;;;;;;5.60;2.38;;;20.30;90.40;;;;;;4961707;28;20040;-73
2022/08/08 10:01:32;;;;;;;7.97;2.38;;;20.30;90.40;;;;;;4932140;28;20121;-73
2022/08/08 10:04:05;;;;;;;4.72;2.00;;;20.30;90.30;;;;;;4943302;28;20954;-73
2022/08/08 10:06:46;;;;;;;3.97;1.83;;;20.50;90.10;;;;;;4945017;28;20085;-73
2022/08/08 10:09:14;;;;;;;4.77;1.80;;;20.50;90.00;;;;;;4946270;28;20059;-73
2022/08/08 10:11:47;;;;;;;3.08;1.67;;;20.50;90.20;;;;;;4931311;28;20048;-73
2022/08/08 10:14:16;;;;;;;3.10;1.63;;;20.60;90.10;;;;;;4931347;28;20039;-73
2022/08/08 10:16:42;;;;;;;6.47;2.42;;;20.60;90.10;;;;;;4945822;28;20036;-73
2022/08/08 10:19:12;;;;;;;3.28;2.03;;;20.60;90.10;;;;;;4944912;28;20620;-73
2022/08/08 10:21:38;;;;;;;4.05;1.83;;;20.60;89.90;;;;;;4941670;28;20050;-73
2022/08/08 10:24:12;;;;;;;3.80;2.53;;;20.60;89.70;;;;;;4947089;28;20610;-73
2022/08/08 10:26:51;;;;;;;5.97;2.00;;;20.60;89.50;;;;;;4931873;28;20039;-73
2022/08/08 10:29:36;;;;;;;2.72;1.23;;;20.70;89.30;;;;;;4932727;28;20106;-73
2022/08/08 10:34:53;;;;;;;8.65;1.70;;;20.80;89.00;;;;;;4946191;28;20055;-73
2022/08/08 10:37:28;;;;;;;6.97;1.80;;;20.90;88.50;;;;;;4943817;28;20043;-73
2022/08/08 10:39:55;;;;;;;3.63;1.52;;;20.90;88.40;;;;;;4930673;28;20077;-73
2022/08/08 10:42:33;;;;;;;3.08;1.67;;;21.00;88.40;;;;;;4930795;28;20079;-73
2022/08/08 10:45:15;;;;;;;2.25;1.75;;;21.00;87.90;;;;;;4930611;28;20051;-74
2022/08/08 10:47:51;;;;;;;3.00;1.45;;;21.00;87.90;;;;;;4946771;28;20047;-74
2022/08/08 10:50:17;;;;;;;3.58;1.45;;;21.00;87.50;;;;;;4935211;28;20047;-74
2022/08/08 10:52:49;;;;;;;2.33;1.50;;;21.10;87.50;;;;;;4934421;28;20845;-74
2022/08/08 10:55:19;;;;;;;3.15;1.83;;;21.10;87.30;;;;;;4933994;28;20132;-74
2022/08/08 10:58:07;;;;;;;2.88;1.48;;;21.20;87.20;;;;;;4945364;28;20528;-73
2022/08/08 11:00:34;;;;;;;3.40;1.65;;;21.20;87.10;;;;;;4943535;28;20044;-74
2022/08/08 11:03:13;;;;;;;2.47;1.40;;;21.20;86.70;;;;;;4944028;28;20043;-74
2022/08/08 11:05:55;;;;;;;2.45;1.70;;;21.40;86.50;;;;;;4946147;28;20066;-73
2022/08/08 11:08:38;;;;;;;;;;;;;;;;;;;;;
2022/08/08 11:11:13;;;;;;;2.78;1.67;;;21.40;86.20;;;;;;4942531;28;40375;-74
2022/08/08 11:13:44;;;;;;;3.83;1.75;;;21.40;86.40;;;;;;4945784;28;20043;-73
2022/08/08 11:16:27;;;;;;;5.90;1.83;;;21.40;86.20;;;;;;4945678;28;20051;-74
2022/08/08 11:18:54;;;;;;;4.10;1.60;;;21.30;85.80;;;;;;4943804;28;20072;-74
2022/08/08 11:21:29;;;;;;;9.30;2.28;;;21.50;85.40;;;;;;4930156;28;20581;-74
2022/08/08 11:23:59;;;;;;;2.10;1.40;;;21.50;85.40;;;;;;4928913;28;20048;-74
2022/08/08 11:26:27;;;;;;;5.18;1.60;;;21.50;85.50;;;;;;4929496;28;20557;-74
2022/08/08 11:28:56;;;;;;;5.43;1.40;;;21.90;85.00;;;;;;4930900;28;20051;-74
2022/08/08 11:31:37;;;;;;;2.50;1.48;;;21.60;84.70;;;;;;4929825;28;20581;-74
2022/08/08 11:34:07;;;;;;;2.17;1.40;;;21.60;84.60;;;;;;4931155;28;20059;-74
2022/08/08 11:36:40;;;;;;;2.10;1.50;;;21.50;84.70;;;;;;4946053;28;20350;-73
2022/08/08 11:39:14;;;;;;;3.67;1.50;;;21.60;84.70;;;;;;4929344;28;20077;-73
2022/08/08 11:41:46;;;;;;;5.43;1.80;;;21.70;84.40;;;;;;4944000;28;20059;-74
2022/08/08 11:44:13;;;;;;;;;;;21.70;84.50;;;;;;4944465;28;20102;-74
2022/08/08 11:46:39;;;;;;;3.88;1.27;;;21.70;84.20;;;;;;4946032;28;19926;-74
2022/08/08 11:49:13;;;;;;;3.03;1.30;;;21.70;84.40;;;;;;4946487;28;20048;-74
2022/08/08 11:51:48;;;;;;;3.78;1.70;;;21.70;84.30;;;;;;4944826;28;20040;-74
2022/08/08 11:54:32;;;;;;;5.18;1.70;;;21.80;84.10;;;;;;4946088;28;20047;-74
2022/08/08 11:57:23;;;;;;;2.30;1.52;;;22.00;83.50;;;;;;4929692;28;20047;-73
2022/08/08 12:00:18;;;;;;;2.83;1.27;;;22.00;83.50;;;;;;4928732;28;20126;-74
2022/08/08 12:02:49;;;;;;;5.15;1.67;;;22.00;83.50;;;;;;4958823;28;20520;-73
2022/08/08 12:05:21;;;;;;;4.53;1.73;;;22.10;83.50;;;;;;4953120;28;20126;-73
2022/08/08 12:07:54;;;;;;;2.65;1.88;;;22.00;83.60;;;;;;4922396;28;21238;-73
2022/08/08 12:10:23;;;;;;;4.55;1.58;;;22.10;83.90;;;;;;4927405;28;20043;-73
2022/08/08 12:13:00;;;;;;;5.43;1.88;;;22.10;83.90;;;;;;4928538;28;20051;-73
2022/08/08 12:15:38;;;;;;;2.55;1.90;;;22.10;84.00;;;;;;4929326;28;20580;-73
2022/08/08 12:18:23;;;;;;;2.15;1.40;;;22.00;84.10;;;;;;4938948;28;20638;-82
2022/08/08 12:20:55;;;;;;;4.53;2.10;;;22.20;83.60;;;;;;4927828;28;20049;-74
2022/08/08 12:23:37;;;;;;;1.85;1.55;;;22.20;83.50;;;;;;4941893;28;20482;-72
2022/08/08 12:26:18;;;;;;;2.67;1.30;;;22.20;83.50;;;;;;4943498;28;20047;-73
2022/08/08 12:28:59;;;;;;;3.78;1.95;;;22.30;83.30;;;;;;4929547;28;20108;-73
2022/08/08 12:31:35;;;;;;;4.63;1.70;;;22.40;83.20;;;;;;4958428;28;20077;-73
2022/08/08 12:34:04;;;;;;;2.28;1.67;;;22.40;83.20;;;;;;4929172;28;20584;-73
2022/08/08 12:37:07;;;;;;;4.57;1.75;;;22.30;83.20;;;;;;4944078;28;20195;-75
2022/08/08 12:39:38;;;;;;;3.72;1.60;;;22.40;83.10;;;;;;4942624;28;20056;-73
2022/08/08 12:42:10;;;;;;;1.83;1.30;;;22.40;82.80;;;;;;4941946;28;20581;-73
2022/08/08 12:44:40;;;;;;;4.53;1.50;;;22.60;82.60;;;;;;4927143;28;20135;-73
2022/08/08 12:47:07;;;;;;;3.80;1.60;;;22.50;82.50;;;;;;4942695;28;20133;-73
2022/08/08 12:49:38;;;;;;;1.98;1.55;;;22.50;82.50;;;;;;4942379;28;20044;-73
2022/08/08 12:52:26;;;;;;;2.70;1.60;;;22.40;82.40;;;;;;4937164;28;20047;-73
2022/08/08 12:55:07;;;;;;;2.13;1.23;;;22.50;82.30;;;;;;4936196;28;20139;-73
2022/08/08 12:57:44;;;;;;;3.53;1.42;;;22.60;82.00;;;;;;4953482;28;20055;-73
2022/08/08 13:00:28;;;;;;;4.13;1.85;;;22.60;81.80;;;;;;4960425;28;20052;-73
2022/08/08 13:03:00;;;;;;;2.47;1.50;;;22.60;81.50;;;;;;4937279;28;20043;-73
2022/08/08 13:05:29;;;;;;;;;;;22.60;81.10;;;;;;4938210;28;20047;-73
2022/08/08 13:07:55;;;;;;;4.55;1.67;;;22.80;79.90;;;;;;4944676;28;19969;-73
2022/08/08 13:10:39;;;;;;;3.03;1.30;;;22.70;79.90;;;;;;4941962;28;20055;-72
2022/08/08 13:13:25;;;;;;;4.95;1.70;;;22.80;79.80;;;;;;4938614;28;20109;-73
2022/08/08 13:16:21;;;;;;;1.80;1.40;;;22.90;79.80;;;;;;4952307;28;20051;-72
2022/08/08 13:18:48;;;;;;;2.38;1.40;;;22.80;79.50;;;;;;4939158;28;20510;-73
2022/08/08 13:21:19;;;;;;;2.08;1.65;;;23.00;78.60;;;;;;4941854;28;20584;-73
2022/08/08 13:23:45;;;;;;;2.83;1.10;;;23.00;77.80;;;;;;4937596;28;20174;-72
2022/08/08 13:26:16;;;;;;;2.30;1.38;;;23.10;78.00;;;;;;4927026;28;20579;-72
2022/08/08 13:28:43;;;;;;;2.42;1.67;;;23.10;77.60;;;;;;4925947;28;20047;-73
2022/08/08 13:31:12;;;;;;;5.20;1.58;;;23.10;76.90;;;;;;4941055;28;20055;-73
2022/08/08 13:33:44;;;;;;;2.47;1.50;;;23.20;76.00;;;;;;4939101;28;20043;-73
2022/08/08 13:36:10;;;;;;;2.83;1.55;;;23.20;76.10;;;;;;4941828;28;20553;-74
2022/08/08 13:38:37;;;;;;;2.63;1.65;;;23.20;76.50;;;;;;4942582;28;20093;-72
2022/08/08 13:41:04;;;;;;;2.33;1.67;;;23.20;76.20;;;;;;4941691;28;20056;-74
2022/08/08 13:43:33;;;;;;;2.70;1.17;;;23.20;75.20;;;;;;4924857;28;20047;-73
2022/08/08 13:46:13;;;;;;;4.43;1.83;;;23.30;75.00;;;;;;4936278;28;20048;-74
2022/08/08 13:48:52;;;;;;;2.28;1.20;;;23.30;74.60;;;;;;4952733;28;20044;-75
2022/08/08 13:51:18;;;;;;;2.72;1.40;;;23.30;74.70;;;;;;4938323;28;20104;-73
2022/08/08 13:53:54;;;;;;;2.92;1.25;;;23.30;74.90;;;;;;4937145;28;20472;-73
2022/08/08 13:56:36;;;;;;;3.03;1.42;;;23.30;74.90;;;;;;4938543;28;20105;-73
2022/08/08 13:59:03;;;;;;;3.33;1.38;;;23.40;75.00;;;;;;4930974;28;20050;-73
2022/08/08 14:01:38;;;;;;;2.70;1.58;;;23.40;75.20;;;;;;4925218;28;20443;-73
2022/08/08 14:04:06;;;;;;;1.95;1.15;;;23.40;75.10;;;;;;4922153;28;20194;-73
2022/08/08 14:06:51;;;;;;;1.83;1.50;;;23.40;74.50;;;;;;4926526;28;20039;-73
2022/08/08 14:09:30;;;;;;;2.50;1.63;;;23.50;74.60;;;;;;4929080;28;20055;-73
2022/08/08 14:11:58;;;;;;;2.17;1.50;;;23.50;74.60;;;;;;4928364;28;20107;-73
2022/08/08 14:14:40;;;;;;;2.85;1.63;;;23.50;74.20;;;;;;4939153;28;20128;-73
2022/08/08 14:17:10;;;;;;;1.95;1.10;;;23.60;73.90;;;;;;4942610;28;20182;-73
2022/08/08 14:19:43;;;;;;;3.40;1.33;;;23.60;74.20;;;;;;4928118;28;20040;-73
2022/08/08 14:22:28;;;;;;;2.40;1.38;;;23.60;74.00;;;;;;4928487;28;20454;-72
2022/08/08 14:24:59;;;;;;;2.30;1.20;;;23.70;73.10;;;;;;4930377;28;20052;-73